sensor_id;sensor_type;location;lat;lon;timestamp;temperature;humidity
13409;DHT22;6775;49.574;11.170;2024-02-23T00:01:41;9.70;99.90
13409;DHT22;6775;49.574;11.170;2024-02-23T00:04:09;9.70;99.90
13409;DHT22;6775;49.574;11.170;2024-02-23T00:06:37;9.70;99.90
13409;DHT22;6775;49.574;11.170;2024-02-23T00:09:06;9.70;99.90
13409;DHT22;6775;49.574;11.170;2024-02-23T00:11:34;9.70;99.90
13409;DHT22;6775;49.574;11.170;2024-02-23T00:14:06;9.70;99.90
13409;DHT22;6775;49.574;11.170;2024-02-23T00:16:38;9.70;99.90
13409;DHT22;6775;49.574;11.170;2024-02-23T00:19:09;9.70;99.90
13409;DHT22;6775;49.574;11.170;2024-02-23T00:21:38;9.60;99.90
13409;DHT22;6775;49.574;11.170;2024-02-23T00:24:06;9.60;99.90
13409;DHT22;6775;49.574;11.170;2024-02-23T00:26:35;9.50;99.90
13409;DHT22;6775;49.574;11.170;2024-02-23T00:29:03;9.50;99.90
13409;DHT22;6775;49.574;11.170;2024-02-23T00:31:31;9.50;99.90
13409;DHT22;6775;49.574;11.170;2024-02-23T00:33:59;9.40;99.90
13409;DHT22;6775;49.574;11.170;2024-02-23T00:36:29;9.40;99.90
13409;DHT22;6775;49.574;11.170;2024-02-23T00:38:57;9.40;99.90
13409;DHT22;6775;49.574;11.170;2024-02-23T00:41:25;9.40;99.90
13409;DHT22;6775;49.574;11.170;2024-02-23T00:43:53;9.40;99.90
13409;DHT22;6775;49.574;11.170;2024-02-23T00:46:21;9.30;99.90
13409;DHT22;6775;49.574;11.170;2024-02-23T00:48:50;9.30;99.90
13409;DHT22;6775;49.574;11.170;2024-02-23T00:51:18;9.30;99.90
13409;DHT22;6775;49.574;11.170;2024-02-23T00:53:47;9.30;99.90
13409;DHT22;6775;49.574;11.170;2024-02-23T00:56:16;9.20;99.90
13409;DHT22;6775;49.574;11.170;2024-02-23T00:58:44;9.20;99.90
13409;DHT22;6775;49.574;11.170;2024-02-23T01:01:12;9.20;99.90
13409;DHT22;6775;49.574;11.170;2024-02-23T01:03:40;9.10;99.90
13409;DHT22;6775;49.574;11.170;2024-02-23T01:06:09;9.10;99.90
13409;DHT22;6775;49.574;11.170;2024-02-23T01:08:37;9.00;99.90
13409;DHT22;6775;49.574;11.170;2024-02-23T01:11:08;9.00;99.90
13409;DHT22;6775;49.574;11.170;2024-02-23T01:13:36;8.90;99.90
13409;DHT22;6775;49.574;11.170;2024-02-23T01:16:05;8.80;99.90
13409;DHT22;6775;49.574;11.170;2024-02-23T01:18:33;8.80;99.90
13409;DHT22;6775;49.574;11.170;2024-02-23T01:21:02;8.70;99.90
13409;DHT22;6775;49.574;11.170;2024-02-23T01:23:30;8.70;99.90
13409;DHT22;6775;49.574;11.170;2024-02-23T01:25:58;8.70;99.90
13409;DHT22;6775;49.574;11.170;2024-02-23T01:28:28;8.60;99.90
13409;DHT22;6775;49.574;11.170;2024-02-23T01:30:56;8.50;99.90
13409;DHT22;6775;49.574;11.170;2024-02-23T01:33:24;8.50;99.90
13409;DHT22;6775;49.574;11.170;2024-02-23T01:35:52;8.40;99.90
13409;DHT22;6775;49.574;11.170;2024-02-23T01:38:21;8.40;99.90
13409;DHT22;6775;49.574;11.170;2024-02-23T01:40:51;8.40;99.90
13409;DHT22;6775;49.574;11.170;2024-02-23T01:43:19;8.30;99.90
13409;DHT22;6775;49.574;11.170;2024-02-23T01:45:49;8.20;99.90
13409;DHT22;6775;49.574;11.170;2024-02-23T01:48:17;8.20;99.90
13409;DHT22;6775;49.574;11.170;2024-02-23T01:50:46;8.20;99.90
13409;DHT22;6775;49.574;11.170;2024-02-23T01:53:15;8.10;99.90
13409;DHT22;6775;49.574;11.170;2024-02-23T01:55:46;8.00;99.90
13409;DHT22;6775;49.574;11.170;2024-02-23T01:58:15;8.00;99.90
13409;DHT22;6775;49.574;11.170;2024-02-23T02:00:43;8.00;99.90
13409;DHT22;6775;49.574;11.170;2024-02-23T02:03:12;7.90;99.90
13409;DHT22;6775;49.574;11.170;2024-02-23T02:05:41;7.90;99.90
13409;DHT22;6775;49.574;11.170;2024-02-23T02:08:11;7.80;99.90
13409;DHT22;6775;49.574;11.170;2024-02-23T02:10:41;7.80;99.90
13409;DHT22;6775;49.574;11.170;2024-02-23T02:13:09;7.70;99.90
13409;DHT22;6775;49.574;11.170;2024-02-23T02:15:38;7.70;99.90
13409;DHT22;6775;49.574;11.170;2024-02-23T02:18:06;7.70;99.90
13409;DHT22;6775;49.574;11.170;2024-02-23T02:20:36;7.70;99.90
13409;DHT22;6775;49.574;11.170;2024-02-23T02:23:08;7.70;99.90
13409;DHT22;6775;49.574;11.170;2024-02-23T02:25:37;7.70;99.90
13409;DHT22;6775;49.574;11.170;2024-02-23T02:28:06;7.60;99.90
13409;DHT22;6775;49.574;11.170;2024-02-23T02:30:35;7.60;99.90
13409;DHT22;6775;49.574;11.170;2024-02-23T02:33:03;7.60;99.90
13409;DHT22;6775;49.574;11.170;2024-02-23T02:35:31;7.60;99.90
13409;DHT22;6775;49.574;11.170;2024-02-23T02:38:01;7.60;99.90
13409;DHT22;6775;49.574;11.170;2024-02-23T02:40:29;7.50;99.90
13409;DHT22;6775;49.574;11.170;2024-02-23T02:42:58;7.50;99.90
13409;DHT22;6775;49.574;11.170;2024-02-23T02:45:26;7.50;99.90
13409;DHT22;6775;49.574;11.170;2024-02-23T02:47:54;7.50;99.90
13409;DHT22;6775;49.574;11.170;2024-02-23T02:50:23;7.50;99.90
13409;DHT22;6775;49.574;11.170;2024-02-23T02:52:51;7.50;99.90
13409;DHT22;6775;49.574;11.170;2024-02-23T02:55:21;7.40;99.90
13409;DHT22;6775;49.574;11.170;2024-02-23T02:57:49;7.40;99.90
13409;DHT22;6775;49.574;11.170;2024-02-23T03:00:17;7.40;99.90
13409;DHT22;6775;49.574;11.170;2024-02-23T03:02:45;7.30;99.90
13409;DHT22;6775;49.574;11.170;2024-02-23T03:05:14;7.40;99.90
13409;DHT22;6775;49.574;11.170;2024-02-23T03:07:42;7.30;99.90
13409;DHT22;6775;49.574;11.170;2024-02-23T03:10:10;7.30;99.90
13409;DHT22;6775;49.574;11.170;2024-02-23T03:12:40;7.30;99.90
13409;DHT22;6775;49.574;11.170;2024-02-23T03:15:08;7.30;99.90
13409;DHT22;6775;49.574;11.170;2024-02-23T03:17:38;7.30;99.90
13409;DHT22;6775;49.574;11.170;2024-02-23T03:20:07;7.30;99.90
13409;DHT22;6775;49.574;11.170;2024-02-23T03:22:37;7.30;99.90
13409;DHT22;6775;49.574;11.170;2024-02-23T03:25:05;7.30;99.90
13409;DHT22;6775;49.574;11.170;2024-02-23T03:27:36;7.20;99.90
13409;DHT22;6775;49.574;11.170;2024-02-23T03:30:07;7.20;99.90
13409;DHT22;6775;49.574;11.170;2024-02-23T03:32:35;7.20;99.90
13409;DHT22;6775;49.574;11.170;2024-02-23T03:35:06;7.10;99.90
13409;DHT22;6775;49.574;11.170;2024-02-23T03:37:36;7.10;99.90
13409;DHT22;6775;49.574;11.170;2024-02-23T03:40:05;7.10;99.90
13409;DHT22;6775;49.574;11.170;2024-02-23T03:42:34;7.10;99.90
13409;DHT22;6775;49.574;11.170;2024-02-23T03:45:06;7.00;99.90
13409;DHT22;6775;49.574;11.170;2024-02-23T03:47:34;7.00;99.90
13409;DHT22;6775;49.574;11.170;2024-02-23T03:50:03;7.00;99.90
13409;DHT22;6775;49.574;11.170;2024-02-23T03:52:32;7.00;99.90
13409;DHT22;6775;49.574;11.170;2024-02-23T03:55:00;6.90;99.90
13409;DHT22;6775;49.574;11.170;2024-02-23T03:57:31;6.90;99.90
13409;DHT22;6775;49.574;11.170;2024-02-23T04:00:00;6.90;99.90
13409;DHT22;6775;49.574;11.170;2024-02-23T04:02:29;6.90;99.90
13409;DHT22;6775;49.574;11.170;2024-02-23T04:04:57;6.90;99.90
13409;DHT22;6775;49.574;11.170;2024-02-23T04:07:25;6.90;99.90
13409;DHT22;6775;49.574;11.170;2024-02-23T04:09:54;6.90;99.90
13409;DHT22;6775;49.574;11.170;2024-02-23T04:12:22;6.80;99.90
13409;DHT22;6775;49.574;11.170;2024-02-23T04:14:50;6.80;99.90
13409;DHT22;6775;49.574;11.170;2024-02-23T04:17:19;6.80;99.90
13409;DHT22;6775;49.574;11.170;2024-02-23T04:19:48;6.80;99.90
13409;DHT22;6775;49.574;11.170;2024-02-23T04:22:17;6.80;99.90
13409;DHT22;6775;49.574;11.170;2024-02-23T04:24:45;6.80;99.90
13409;DHT22;6775;49.574;11.170;2024-02-23T04:27:13;6.80;99.90
13409;DHT22;6775;49.574;11.170;2024-02-23T04:29:41;6.90;99.90
13409;DHT22;6775;49.574;11.170;2024-02-23T04:32:09;6.90;99.90
13409;DHT22;6775;49.574;11.170;2024-02-23T04:34:38;6.90;99.90
13409;DHT22;6775;49.574;11.170;2024-02-23T04:37:08;6.90;99.90
13409;DHT22;6775;49.574;11.170;2024-02-23T04:39:36;6.80;99.90
13409;DHT22;6775;49.574;11.170;2024-02-23T04:42:08;6.80;99.90
13409;DHT22;6775;49.574;11.170;2024-02-23T04:44:36;6.80;99.90
13409;DHT22;6775;49.574;11.170;2024-02-23T04:47:05;6.80;99.90
13409;DHT22;6775;49.574;11.170;2024-02-23T04:49:33;6.80;99.90
13409;DHT22;6775;49.574;11.170;2024-02-23T04:52:02;6.80;99.90
13409;DHT22;6775;49.574;11.170;2024-02-23T04:54:31;6.80;99.90
13409;DHT22;6775;49.574;11.170;2024-02-23T04:56:59;6.70;99.90
13409;DHT22;6775;49.574;11.170;2024-02-23T04:59:27;6.80;99.90
13409;DHT22;6775;49.574;11.170;2024-02-23T05:01:58;6.70;99.90
13409;DHT22;6775;49.574;11.170;2024-02-23T05:04:26;6.70;99.90
13409;DHT22;6775;49.574;11.170;2024-02-23T05:06:55;6.60;99.90
13409;DHT22;6775;49.574;11.170;2024-02-23T05:09:23;6.70;99.90
13409;DHT22;6775;49.574;11.170;2024-02-23T05:11:52;6.70;99.90
13409;DHT22;6775;49.574;11.170;2024-02-23T05:14:20;6.70;99.90
13409;DHT22;6775;49.574;11.170;2024-02-23T05:16:49;6.70;99.90
13409;DHT22;6775;49.574;11.170;2024-02-23T05:19:17;6.60;99.90
13409;DHT22;6775;49.574;11.170;2024-02-23T05:21:45;6.60;99.90
13409;DHT22;6775;49.574;11.170;2024-02-23T05:24:13;6.60;99.90
13409;DHT22;6775;49.574;11.170;2024-02-23T05:26:41;6.60;99.90
13409;DHT22;6775;49.574;11.170;2024-02-23T05:29:12;6.60;99.90
13409;DHT22;6775;49.574;11.170;2024-02-23T05:31:46;6.60;99.90
13409;DHT22;6775;49.574;11.170;2024-02-23T05:34:16;6.60;99.90
13409;DHT22;6775;49.574;11.170;2024-02-23T05:36:45;6.60;99.90
13409;DHT22;6775;49.574;11.170;2024-02-23T05:39:14;6.60;99.90
13409;DHT22;6775;49.574;11.170;2024-02-23T05:41:43;6.60;99.90
13409;DHT22;6775;49.574;11.170;2024-02-23T05:44:12;6.60;99.90
13409;DHT22;6775;49.574;11.170;2024-02-23T05:46:42;6.50;99.90
13409;DHT22;6775;49.574;11.170;2024-02-23T05:49:11;6.50;99.90
13409;DHT22;6775;49.574;11.170;2024-02-23T05:51:40;6.50;99.90
13409;DHT22;6775;49.574;11.170;2024-02-23T05:54:08;6.50;99.90
13409;DHT22;6775;49.574;11.170;2024-02-23T05:56:38;6.50;99.90
13409;DHT22;6775;49.574;11.170;2024-02-23T05:59:06;6.50;99.90
13409;DHT22;6775;49.574;11.170;2024-02-23T06:01:35;6.50;99.90
13409;DHT22;6775;49.574;11.170;2024-02-23T06:04:04;6.50;99.90
13409;DHT22;6775;49.574;11.170;2024-02-23T06:06:32;6.50;99.90
13409;DHT22;6775;49.574;11.170;2024-02-23T06:09:00;6.50;99.90
13409;DHT22;6775;49.574;11.170;2024-02-23T06:11:29;6.50;99.90
13409;DHT22;6775;49.574;11.170;2024-02-23T06:13:57;6.50;99.90
13409;DHT22;6775;49.574;11.170;2024-02-23T06:16:26;6.50;99.90
13409;DHT22;6775;49.574;11.170;2024-02-23T06:18:55;6.50;99.90
13409;DHT22;6775;49.574;11.170;2024-02-23T06:21:23;6.50;99.90
13409;DHT22;6775;49.574;11.170;2024-02-23T06:23:52;6.60;99.90
13409;DHT22;6775;49.574;11.170;2024-02-23T06:26:20;6.60;99.90
13409;DHT22;6775;49.574;11.170;2024-02-23T06:28:49;6.60;99.90
13409;DHT22;6775;49.574;11.170;2024-02-23T06:31:17;6.60;99.90
13409;DHT22;6775;49.574;11.170;2024-02-23T06:33:46;6.60;99.90
13409;DHT22;6775;49.574;11.170;2024-02-23T06:36:17;6.50;99.90
13409;DHT22;6775;49.574;11.170;2024-02-23T06:38:46;6.50;99.90
13409;DHT22;6775;49.574;11.170;2024-02-23T06:41:14;6.50;99.90
13409;DHT22;6775;49.574;11.170;2024-02-23T06:43:42;6.50;99.90
13409;DHT22;6775;49.574;11.170;2024-02-23T06:46:11;6.40;99.90
13409;DHT22;6775;49.574;11.170;2024-02-23T06:48:39;6.40;99.90
13409;DHT22;6775;49.574;11.170;2024-02-23T06:51:07;6.40;99.90
13409;DHT22;6775;49.574;11.170;2024-02-23T06:53:38;6.40;99.90
13409;DHT22;6775;49.574;11.170;2024-02-23T06:56:06;6.50;99.90
13409;DHT22;6775;49.574;11.170;2024-02-23T06:58:34;6.30;99.90
13409;DHT22;6775;49.574;11.170;2024-02-23T07:01:03;6.30;99.90
13409;DHT22;6775;49.574;11.170;2024-02-23T07:03:33;6.30;99.90
13409;DHT22;6775;49.574;11.170;2024-02-23T07:06:02;6.30;99.90
13409;DHT22;6775;49.574;11.170;2024-02-23T07:08:31;6.30;99.90
13409;DHT22;6775;49.574;11.170;2024-02-23T07:11:00;6.30;99.90
13409;DHT22;6775;49.574;11.170;2024-02-23T07:13:29;6.30;99.90
13409;DHT22;6775;49.574;11.170;2024-02-23T07:15:58;6.30;99.90
13409;DHT22;6775;49.574;11.170;2024-02-23T07:18:28;6.30;99.90
13409;DHT22;6775;49.574;11.170;2024-02-23T07:20:56;6.30;99.90
13409;DHT22;6775;49.574;11.170;2024-02-23T07:23:24;6.30;99.90
13409;DHT22;6775;49.574;11.170;2024-02-23T07:25:53;6.30;99.90
13409;DHT22;6775;49.574;11.170;2024-02-23T07:28:23;6.30;99.90
13409;DHT22;6775;49.574;11.170;2024-02-23T07:30:51;6.30;99.90
13409;DHT22;6775;49.574;11.170;2024-02-23T07:33:19;6.40;99.90
13409;DHT22;6775;49.574;11.170;2024-02-23T07:35:48;6.40;99.90
13409;DHT22;6775;49.574;11.170;2024-02-23T07:38:16;6.50;99.90
13409;DHT22;6775;49.574;11.170;2024-02-23T07:40:45;6.50;99.90
13409;DHT22;6775;49.574;11.170;2024-02-23T07:43:13;6.60;99.90
13409;DHT22;6775;49.574;11.170;2024-02-23T07:45:42;6.60;99.90
13409;DHT22;6775;49.574;11.170;2024-02-23T07:48:11;6.50;99.90
13409;DHT22;6775;49.574;11.170;2024-02-23T07:50:39;6.50;99.90
13409;DHT22;6775;49.574;11.170;2024-02-23T07:53:07;6.50;99.90
13409;DHT22;6775;49.574;11.170;2024-02-23T07:55:36;6.50;99.90
13409;DHT22;6775;49.574;11.170;2024-02-23T07:58:04;6.50;99.90
13409;DHT22;6775;49.574;11.170;2024-02-23T08:00:33;6.80;99.90
13409;DHT22;6775;49.574;11.170;2024-02-23T08:03:06;6.50;99.90
13409;DHT22;6775;49.574;11.170;2024-02-23T08:05:35;6.50;99.90
13409;DHT22;6775;49.574;11.170;2024-02-23T08:08:03;6.50;99.90
13409;DHT22;6775;49.574;11.170;2024-02-23T08:10:33;6.50;99.90
13409;DHT22;6775;49.574;11.170;2024-02-23T08:13:01;6.60;99.90
13409;DHT22;6775;49.574;11.170;2024-02-23T08:15:30;6.60;99.90
13409;DHT22;6775;49.574;11.170;2024-02-23T08:17:58;6.60;99.90
13409;DHT22;6775;49.574;11.170;2024-02-23T08:20:27;6.60;99.90
13409;DHT22;6775;49.574;11.170;2024-02-23T08:22:56;6.60;99.90
13409;DHT22;6775;49.574;11.170;2024-02-23T08:25:24;6.60;99.90
13409;DHT22;6775;49.574;11.170;2024-02-23T08:27:55;6.70;99.90
13409;DHT22;6775;49.574;11.170;2024-02-23T08:30:23;6.70;99.90
13409;DHT22;6775;49.574;11.170;2024-02-23T08:32:51;6.70;99.90
13409;DHT22;6775;49.574;11.170;2024-02-23T08:35:20;6.80;99.90
13409;DHT22;6775;49.574;11.170;2024-02-23T08:37:49;6.80;99.90
13409;DHT22;6775;49.574;11.170;2024-02-23T08:40:17;6.90;99.90
13409;DHT22;6775;49.574;11.170;2024-02-23T08:42:46;6.90;99.90
13409;DHT22;6775;49.574;11.170;2024-02-23T08:45:16;7.00;99.90
13409;DHT22;6775;49.574;11.170;2024-02-23T08:47:44;7.10;99.90
13409;DHT22;6775;49.574;11.170;2024-02-23T08:50:13;7.20;99.90
13409;DHT22;6775;49.574;11.170;2024-02-23T08:52:41;7.30;99.90
13409;DHT22;6775;49.574;11.170;2024-02-23T08:55:10;7.40;99.90
13409;DHT22;6775;49.574;11.170;2024-02-23T08:57:39;7.40;99.90
13409;DHT22;6775;49.574;11.170;2024-02-23T09:00:08;7.40;99.90
13409;DHT22;6775;49.574;11.170;2024-02-23T09:02:41;7.30;99.90
13409;DHT22;6775;49.574;11.170;2024-02-23T09:05:10;7.30;99.90
13409;DHT22;6775;49.574;11.170;2024-02-23T09:07:38;7.40;99.90
13409;DHT22;6775;49.574;11.170;2024-02-23T09:10:07;7.30;99.90
13409;DHT22;6775;49.574;11.170;2024-02-23T09:12:38;7.30;99.90
13409;DHT22;6775;49.574;11.170;2024-02-23T09:15:07;7.40;99.90
13409;DHT22;6775;49.574;11.170;2024-02-23T09:17:36;7.30;99.90
13409;DHT22;6775;49.574;11.170;2024-02-23T09:20:05;7.30;99.90
13409;DHT22;6775;49.574;11.170;2024-02-23T09:22:34;7.30;99.90
13409;DHT22;6775;49.574;11.170;2024-02-23T09:25:04;7.30;99.90
13409;DHT22;6775;49.574;11.170;2024-02-23T09:27:34;7.30;99.90
13409;DHT22;6775;49.574;11.170;2024-02-23T09:30:11;7.30;99.90
13409;DHT22;6775;49.574;11.170;2024-02-23T09:32:40;7.30;99.90
13409;DHT22;6775;49.574;11.170;2024-02-23T09:35:08;7.30;99.90
13409;DHT22;6775;49.574;11.170;2024-02-23T09:37:37;7.30;99.90
13409;DHT22;6775;49.574;11.170;2024-02-23T09:40:07;7.30;99.90
13409;DHT22;6775;49.574;11.170;2024-02-23T09:42:38;7.20;99.90
13409;DHT22;6775;49.574;11.170;2024-02-23T09:45:07;7.10;99.90
13409;DHT22;6775;49.574;11.170;2024-02-23T09:47:38;7.10;99.90
13409;DHT22;6775;49.574;11.170;2024-02-23T09:50:09;7.10;99.90
13409;DHT22;6775;49.574;11.170;2024-02-23T09:52:38;7.10;99.90
13409;DHT22;6775;49.574;11.170;2024-02-23T09:55:07;7.10;99.90
13409;DHT22;6775;49.574;11.170;2024-02-23T09:57:38;7.10;99.90
13409;DHT22;6775;49.574;11.170;2024-02-23T10:00:09;7.10;99.90
13409;DHT22;6775;49.574;11.170;2024-02-23T10:02:39;7.10;99.90
13409;DHT22;6775;49.574;11.170;2024-02-23T10:05:10;7.10;99.90
13409;DHT22;6775;49.574;11.170;2024-02-23T10:07:40;7.10;99.90
13409;DHT22;6775;49.574;11.170;2024-02-23T10:10:09;7.10;99.90
13409;DHT22;6775;49.574;11.170;2024-02-23T10:12:39;7.10;99.90
13409;DHT22;6775;49.574;11.170;2024-02-23T10:15:08;7.10;99.90
13409;DHT22;6775;49.574;11.170;2024-02-23T10:17:37;7.10;99.90
13409;DHT22;6775;49.574;11.170;2024-02-23T10:20:07;7.20;99.90
13409;DHT22;6775;49.574;11.170;2024-02-23T10:22:37;7.20;99.90
13409;DHT22;6775;49.574;11.170;2024-02-23T10:25:06;7.20;99.90
13409;DHT22;6775;49.574;11.170;2024-02-23T10:27:34;7.10;99.90
13409;DHT22;6775;49.574;11.170;2024-02-23T10:30:05;7.10;99.90
13409;DHT22;6775;49.574;11.170;2024-02-23T10:32:38;7.10;99.90
13409;DHT22;6775;49.574;11.170;2024-02-23T10:35:10;7.00;99.90
13409;DHT22;6775;49.574;11.170;2024-02-23T10:37:42;7.00;99.90
13409;DHT22;6775;49.574;11.170;2024-02-23T10:40:12;7.00;99.90
13409;DHT22;6775;49.574;11.170;2024-02-23T10:42:43;7.10;99.90
13409;DHT22;6775;49.574;11.170;2024-02-23T10:45:19;7.10;99.90
13409;DHT22;6775;49.574;11.170;2024-02-23T10:47:48;7.10;99.90
13409;DHT22;6775;49.574;11.170;2024-02-23T10:50:19;7.10;99.90
13409;DHT22;6775;49.574;11.170;2024-02-23T10:52:49;7.20;99.90
13409;DHT22;6775;49.574;11.170;2024-02-23T10:55:18;7.20;99.90
13409;DHT22;6775;49.574;11.170;2024-02-23T10:57:48;7.20;99.90
13409;DHT22;6775;49.574;11.170;2024-02-23T11:00:22;7.20;99.90
13409;DHT22;6775;49.574;11.170;2024-02-23T11:02:53;7.30;99.90
13409;DHT22;6775;49.574;11.170;2024-02-23T11:05:23;7.30;99.90
13409;DHT22;6775;49.574;11.170;2024-02-23T11:07:55;7.30;99.90
13409;DHT22;6775;49.574;11.170;2024-02-23T11:10:23;7.30;99.90
13409;DHT22;6775;49.574;11.170;2024-02-23T11:12:57;7.30;99.90
13409;DHT22;6775;49.574;11.170;2024-02-23T11:15:29;7.30;99.90
13409;DHT22;6775;49.574;11.170;2024-02-23T11:18:00;7.30;99.90
13409;DHT22;6775;49.574;11.170;2024-02-23T11:20:34;7.30;99.90
13409;DHT22;6775;49.574;11.170;2024-02-23T11:23:13;7.30;99.90
13409;DHT22;6775;49.574;11.170;2024-02-23T11:25:42;7.30;99.90
13409;DHT22;6775;49.574;11.170;2024-02-23T11:28:21;7.30;99.90
13409;DHT22;6775;49.574;11.170;2024-02-23T11:30:52;7.30;99.90
13409;DHT22;6775;49.574;11.170;2024-02-23T11:33:28;7.30;99.90
13409;DHT22;6775;49.574;11.170;2024-02-23T11:36:06;7.40;99.90
13409;DHT22;6775;49.574;11.170;2024-02-23T11:38:34;7.50;99.90
13409;DHT22;6775;49.574;11.170;2024-02-23T11:41:03;7.50;99.90
13409;DHT22;6775;49.574;11.170;2024-02-23T11:43:34;7.50;99.90
13409;DHT22;6775;49.574;11.170;2024-02-23T11:46:04;7.60;99.90
13409;DHT22;6775;49.574;11.170;2024-02-23T11:48:32;7.60;99.90
13409;DHT22;6775;49.574;11.170;2024-02-23T11:51:01;7.60;99.90
13409;DHT22;6775;49.574;11.170;2024-02-23T11:53:29;7.60;99.90
13409;DHT22;6775;49.574;11.170;2024-02-23T11:55:58;7.60;99.90
13409;DHT22;6775;49.574;11.170;2024-02-23T11:58:26;7.60;99.90
13409;DHT22;6775;49.574;11.170;2024-02-23T12:00:54;7.60;99.90
13409;DHT22;6775;49.574;11.170;2024-02-23T12:03:24;7.60;99.90
13409;DHT22;6775;49.574;11.170;2024-02-23T12:05:53;7.60;99.90
13409;DHT22;6775;49.574;11.170;2024-02-23T12:08:23;7.60;99.90
13409;DHT22;6775;49.574;11.170;2024-02-23T12:10:53;7.70;99.90
13409;DHT22;6775;49.574;11.170;2024-02-23T12:13:22;7.70;99.90
13409;DHT22;6775;49.574;11.170;2024-02-23T12:15:53;7.70;99.90
13409;DHT22;6775;49.574;11.170;2024-02-23T12:18:21;7.70;99.90
13409;DHT22;6775;49.574;11.170;2024-02-23T12:20:54;7.70;99.90
13409;DHT22;6775;49.574;11.170;2024-02-23T12:23:27;7.80;99.90
13409;DHT22;6775;49.574;11.170;2024-02-23T12:25:56;7.80;99.90
13409;DHT22;6775;49.574;11.170;2024-02-23T12:28:25;7.80;99.90
13409;DHT22;6775;49.574;11.170;2024-02-23T12:31:00;7.80;99.90
13409;DHT22;6775;49.574;11.170;2024-02-23T12:33:29;7.80;99.90
13409;DHT22;6775;49.574;11.170;2024-02-23T12:36:02;7.80;99.90
13409;DHT22;6775;49.574;11.170;2024-02-23T12:38:32;7.80;99.90
13409;DHT22;6775;49.574;11.170;2024-02-23T12:41:01;7.90;99.90
13409;DHT22;6775;49.574;11.170;2024-02-23T12:43:30;7.90;99.90
13409;DHT22;6775;49.574;11.170;2024-02-23T12:45:58;7.90;99.90
13409;DHT22;6775;49.574;11.170;2024-02-23T12:48:28;8.10;99.90
13409;DHT22;6775;49.574;11.170;2024-02-23T12:50:56;7.90;99.90
13409;DHT22;6775;49.574;11.170;2024-02-23T12:53:33;7.90;99.90
13409;DHT22;6775;49.574;11.170;2024-02-23T12:56:04;7.80;99.90
13409;DHT22;6775;49.574;11.170;2024-02-23T12:58:35;7.80;99.90
13409;DHT22;6775;49.574;11.170;2024-02-23T13:01:04;7.90;99.90
13409;DHT22;6775;49.574;11.170;2024-02-23T13:03:34;7.80;99.90
13409;DHT22;6775;49.574;11.170;2024-02-23T13:06:04;7.90;99.90
13409;DHT22;6775;49.574;11.170;2024-02-23T13:08:35;7.80;99.90
13409;DHT22;6775;49.574;11.170;2024-02-23T13:11:05;7.80;99.90
13409;DHT22;6775;49.574;11.170;2024-02-23T13:13:34;7.70;99.90
13409;DHT22;6775;49.574;11.170;2024-02-23T13:16:02;7.70;99.90
13409;DHT22;6775;49.574;11.170;2024-02-23T13:18:31;7.70;99.90
13409;DHT22;6775;49.574;11.170;2024-02-23T13:21:01;7.80;99.90
13409;DHT22;6775;49.574;11.170;2024-02-23T13:23:30;7.80;99.90
13409;DHT22;6775;49.574;11.170;2024-02-23T13:26:00;7.80;99.90
13409;DHT22;6775;49.574;11.170;2024-02-23T13:28:29;7.80;99.90
13409;DHT22;6775;49.574;11.170;2024-02-23T13:30:57;7.80;99.90
13409;DHT22;6775;49.574;11.170;2024-02-23T13:33:26;7.80;99.90
13409;DHT22;6775;49.574;11.170;2024-02-23T13:35:54;7.80;99.90
13409;DHT22;6775;49.574;11.170;2024-02-23T13:38:22;7.80;99.90
13409;DHT22;6775;49.574;11.170;2024-02-23T13:40:51;7.80;99.90
13409;DHT22;6775;49.574;11.170;2024-02-23T13:43:20;7.80;99.90
13409;DHT22;6775;49.574;11.170;2024-02-23T13:45:49;7.80;99.90
13409;DHT22;6775;49.574;11.170;2024-02-23T13:48:19;7.80;99.90
13409;DHT22;6775;49.574;11.170;2024-02-23T13:50:48;7.80;99.90
13409;DHT22;6775;49.574;11.170;2024-02-23T13:53:16;7.90;99.90
13409;DHT22;6775;49.574;11.170;2024-02-23T13:55:45;7.90;99.90
13409;DHT22;6775;49.574;11.170;2024-02-23T13:58:13;7.90;99.90
13409;DHT22;6775;49.574;11.170;2024-02-23T14:00:42;7.90;99.90
13409;DHT22;6775;49.574;11.170;2024-02-23T14:03:16;7.90;99.90
13409;DHT22;6775;49.574;11.170;2024-02-23T14:05:45;7.90;99.90
13409;DHT22;6775;49.574;11.170;2024-02-23T14:08:14;7.90;99.90
13409;DHT22;6775;49.574;11.170;2024-02-23T14:10:43;7.80;99.90
13409;DHT22;6775;49.574;11.170;2024-02-23T14:13:14;7.80;99.90
13409;DHT22;6775;49.574;11.170;2024-02-23T14:15:44;7.90;99.90
13409;DHT22;6775;49.574;11.170;2024-02-23T14:18:13;7.90;99.90
13409;DHT22;6775;49.574;11.170;2024-02-23T14:20:41;7.80;99.90
13409;DHT22;6775;49.574;11.170;2024-02-23T14:23:10;7.80;99.90
13409;DHT22;6775;49.574;11.170;2024-02-23T14:25:39;7.90;99.90
13409;DHT22;6775;49.574;11.170;2024-02-23T14:28:07;7.80;99.90
13409;DHT22;6775;49.574;11.170;2024-02-23T14:30:36;7.80;99.90
13409;DHT22;6775;49.574;11.170;2024-02-23T14:33:06;7.80;99.90
13409;DHT22;6775;49.574;11.170;2024-02-23T14:35:34;7.80;99.90
13409;DHT22;6775;49.574;11.170;2024-02-23T14:38:03;7.80;99.90
13409;DHT22;6775;49.574;11.170;2024-02-23T14:40:31;7.80;99.90
13409;DHT22;6775;49.574;11.170;2024-02-23T14:42:59;7.80;99.90
13409;DHT22;6775;49.574;11.170;2024-02-23T14:45:27;7.80;99.90
13409;DHT22;6775;49.574;11.170;2024-02-23T14:47:56;7.80;99.90
13409;DHT22;6775;49.574;11.170;2024-02-23T14:50:26;7.80;99.90
13409;DHT22;6775;49.574;11.170;2024-02-23T14:52:54;7.80;99.90
13409;DHT22;6775;49.574;11.170;2024-02-23T14:55:23;7.80;99.90
13409;DHT22;6775;49.574;11.170;2024-02-23T14:57:51;7.70;99.90
13409;DHT22;6775;49.574;11.170;2024-02-23T15:00:19;7.70;99.90
13409;DHT22;6775;49.574;11.170;2024-02-23T15:02:48;7.70;99.90
13409;DHT22;6775;49.574;11.170;2024-02-23T15:05:16;7.70;99.90
13409;DHT22;6775;49.574;11.170;2024-02-23T15:07:46;7.70;99.90
13409;DHT22;6775;49.574;11.170;2024-02-23T15:10:14;7.70;99.90
13409;DHT22;6775;49.574;11.170;2024-02-23T15:12:43;7.60;99.90
13409;DHT22;6775;49.574;11.170;2024-02-23T15:15:11;7.60;99.90
13409;DHT22;6775;49.574;11.170;2024-02-23T15:17:40;7.60;99.90
13409;DHT22;6775;49.574;11.170;2024-02-23T15:20:10;7.60;99.90
13409;DHT22;6775;49.574;11.170;2024-02-23T15:22:39;7.60;99.90
13409;DHT22;6775;49.574;11.170;2024-02-23T15:25:10;7.60;99.90
13409;DHT22;6775;49.574;11.170;2024-02-23T15:27:39;7.60;99.90
13409;DHT22;6775;49.574;11.170;2024-02-23T15:30:08;7.50;99.90
13409;DHT22;6775;49.574;11.170;2024-02-23T15:32:37;7.50;99.90
13409;DHT22;6775;49.574;11.170;2024-02-23T15:35:06;7.50;99.90
13409;DHT22;6775;49.574;11.170;2024-02-23T15:37:34;7.50;99.90
13409;DHT22;6775;49.574;11.170;2024-02-23T15:40:03;7.40;99.90
13409;DHT22;6775;49.574;11.170;2024-02-23T15:42:34;7.40;99.90
13409;DHT22;6775;49.574;11.170;2024-02-23T15:45:04;7.30;99.90
13409;DHT22;6775;49.574;11.170;2024-02-23T15:47:33;7.20;99.90
13409;DHT22;6775;49.574;11.170;2024-02-23T15:50:02;7.20;99.90
13409;DHT22;6775;49.574;11.170;2024-02-23T15:52:50;7.10;99.90
13409;DHT22;6775;49.574;11.170;2024-02-23T15:55:19;7.10;99.90
13409;DHT22;6775;49.574;11.170;2024-02-23T15:57:48;7.00;99.90